Time;durP1;ratioP1;P1;durP2;ratioP2;P2;SDS_P1;SDS_P2;PMS_P1;PMS_P2;Temp;Humidity;BMP_temperature;BMP_pressure;BME280_temperature;BME280_humidity;BME280_pressure;Samples;Min_cycle;Max_cycle;Signal;HPM_P1;HPM_P2
2024/01/06 00:01:13;;;;;;;6.35;3.60;;;;;5.90;97296.00;;;;5072173;28;20048;-64
2024/01/06 00:03:40;;;;;;;5.60;3.35;;;;;6.00;97297.00;;;;5071467;28;20054;-64
2024/01/06 00:06:06;;;;;;;10.85;3.15;;;;;6.00;97307.00;;;;5074176;28;20048;-65
2024/01/06 00:08:33;;;;;;;10.60;3.53;;;;;6.00;97316.00;;;;5073233;28;20044;-65
2024/01/06 00:11:02;;;;;;;7.50;3.25;;;;;6.10;97312.00;;;;5074738;28;20522;-64
2024/01/06 00:13:29;;;;;;;9.38;3.83;;;;;6.10;97308.00;;;;5075446;28;20117;-65
2024/01/06 00:15:56;;;;;;;7.07;3.90;;;;;6.20;97308.00;;;;5076718;28;20043;-63
2024/01/06 00:18:22;;;;;;;6.05;3.40;;;;;6.30;97302.00;;;;5075702;28;20394;-65
2024/01/06 00:20:49;;;;;;;7.10;3.72;;;;;6.40;97304.00;;;;5075408;28;20546;-65
2024/01/06 00:23:16;;;;;;;9.30;3.45;;;;;6.40;97313.00;;;;5076100;28;20045;-65
2024/01/06 00:25:42;;;;;;;8.60;2.92;;;;;6.50;97309.00;;;;5075318;28;20090;-65
2024/01/06 00:28:09;;;;;;;8.90;3.10;;;;;6.60;97312.00;;;;5073560;28;20048;-65
2024/01/06 00:30:36;;;;;;;5.70;3.00;;;;;6.60;97315.00;;;;5074767;28;20041;-65
2024/01/06 00:33:03;;;;;;;4.97;2.97;;;;;6.70;97316.00;;;;5074713;28;20051;-66
2024/01/06 00:35:29;;;;;;;8.45;3.97;;;;;6.70;97308.00;;;;5074024;28;20044;-65
2024/01/06 00:37:56;;;;;;;8.32;3.13;;;;;6.70;97310.00;;;;5074439;28;20409;-65
2024/01/06 00:40:22;;;;;;;6.82;3.30;;;;;6.70;97311.00;;;;5074515;28;20044;-65
2024/01/06 00:42:49;;;;;;;8.25;3.25;;;;;6.60;97297.00;;;;5073043;28;20057;-65
2024/01/06 00:45:16;;;;;;;7.25;3.05;;;;;6.50;97302.00;;;;5073892;28;20072;-64
2024/01/06 00:47:42;;;;;;;6.00;2.60;;;;;6.50;97293.00;;;;5056403;28;20099;-65
2024/01/06 00:50:10;;;;;;;5.70;2.78;;;;;6.40;97303.00;;;;5074116;28;20157;-64
2024/01/06 00:52:37;;;;;;;7.07;2.67;;;;;6.30;97302.00;;;;5074142;28;20045;-63
2024/01/06 00:55:03;;;;;;;7.03;2.67;;;;;6.30;97305.00;;;;5073398;28;20042;-64
2024/01/06 00:57:30;;;;;;;6.00;2.65;;;;;6.20;97302.00;;;;5073792;28;20131;-65
2024/01/06 00:59:57;;;;;;;7.90;2.83;;;;;6.20;97303.00;;;;5073965;28;20051;-65
2024/01/06 01:02:23;;;;;;;6.65;2.97;;;;;6.10;97302.00;;;;5072739;28;20135;-64
2024/01/06 01:04:50;;;;;;;10.82;4.32;;;;;6.10;97304.00;;;;5073503;28;20211;-64
2024/01/06 01:07:16;;;;;;;6.47;3.40;;;;;6.10;97308.00;;;;5073730;28;20102;-64
2024/01/06 01:09:43;;;;;;;7.32;3.03;;;;;6.10;97314.00;;;;5073807;28;20041;-65
2024/01/06 01:12:10;;;;;;;9.18;3.17;;;;;6.10;97323.00;;;;5073712;28;20147;-62
2024/01/06 01:14:36;;;;;;;7.90;3.08;;;;;6.20;97320.00;;;;5073228;28;20106;-62
2024/01/06 01:17:04;;;;;;;8.48;2.78;;;;;6.20;97324.00;;;;5073713;28;20123;-62
2024/01/06 01:19:30;;;;;;;5.70;3.00;;;;;6.20;97323.00;;;;5073747;28;20047;-62
2024/01/06 01:21:57;;;;;;;4.55;2.70;;;;;6.30;97332.00;;;;5071657;28;20052;-61
2024/01/06 01:24:24;;;;;;;5.45;2.25;;;;;6.30;97332.00;;;;5072873;28;20047;-64
2024/01/06 01:26:50;;;;;;;6.63;2.78;;;;;6.40;97339.00;;;;5072036;28;20080;-61
2024/01/06 01:29:17;;;;;;;6.38;2.90;;;;;6.40;97345.00;;;;5073556;28;20421;-61
2024/01/06 01:31:43;;;;;;;7.13;2.97;;;;;6.50;97340.00;;;;5073365;28;20556;-61
2024/01/06 01:34:10;;;;;;;5.15;2.95;;;;;6.40;97345.00;;;;5072644;28;20036;-62
2024/01/06 01:36:37;;;;;;;7.38;2.90;;;;;6.50;97346.00;;;;5073255;28;20064;-61
2024/01/06 01:39:04;;;;;;;8.38;2.63;;;;;6.50;97347.00;;;;5073132;28;20505;-61
2024/01/06 01:41:30;;;;;;;7.88;2.83;;;;;6.60;97353.00;;;;5073111;28;20131;-64
2024/01/06 01:43:59;;;;;;;7.18;2.50;;;;;6.60;97358.00;;;;5072563;28;20408;-62
2024/01/06 01:46:27;;;;;;;6.00;2.80;;;;;6.70;97360.00;;;;5071780;28;20049;-61
2024/01/06 01:48:55;;;;;;;7.47;2.88;;;;;6.70;97363.00;;;;5073002;28;20131;-61
2024/01/06 01:51:24;;;;;;;4.35;2.63;;;;;6.80;97365.00;;;;5073041;28;20040;-61
2024/01/06 01:53:51;;;;;;;4.75;2.72;;;;;6.80;97362.00;;;;5071147;28;20049;-62
2024/01/06 01:56:18;;;;;;;7.20;3.35;;;;;6.80;97368.00;;;;5073118;28;20493;-62
2024/01/06 01:58:45;;;;;;;6.75;2.90;;;;;6.80;97372.00;;;;5073035;28;20046;-64
2024/01/06 02:01:12;;;;;;;8.68;2.90;;;;;6.80;97365.00;;;;5073001;28;20036;-62
2024/01/06 02:03:41;;;;;;;5.55;2.45;;;;;6.70;97363.00;;;;5072171;28;20045;-65
2024/01/06 02:06:07;;;;;;;4.03;2.72;;;;;6.70;97360.00;;;;5072754;28;20044;-62
2024/01/06 02:08:34;;;;;;;7.10;2.80;;;;;6.70;97358.00;;;;5072608;28;20044;-62
2024/01/06 02:11:01;;;;;;;4.07;2.55;;;;;6.70;97356.00;;;;5072668;28;20048;-60
2024/01/06 02:13:35;;;;;;;4.90;2.15;;;;;6.70;97354.00;;;;5070702;28;20051;-63
2024/01/06 02:16:05;;;;;;;7.07;2.70;;;;;6.70;97361.00;;;;5072638;28;20052;-63
2024/01/06 02:18:32;;;;;;;6.65;2.80;;;;;6.70;97349.00;;;;5072491;28;20041;-62
2024/01/06 02:21:01;;;;;;;5.20;2.58;;;;;6.80;97346.00;;;;5072440;28;20105;-65
2024/01/06 02:23:29;;;;;;;6.68;2.92;;;;;6.80;97349.00;;;;5071883;28;20051;-62
2024/01/06 02:25:56;;;;;;;3.42;2.65;;;;;6.80;97359.00;;;;5072279;28;20044;-63
2024/01/06 02:28:23;;;;;;;6.90;2.80;;;;;6.80;97363.00;;;;5072928;28;20161;-61
2024/01/06 02:30:49;;;;;;;7.45;2.80;;;;;6.90;97373.00;;;;5072599;28;20079;-65
2024/01/06 02:33:19;;;;;;;3.05;2.47;;;;;7.00;97375.00;;;;5071993;28;20045;-61
2024/01/06 02:35:46;;;;;;;6.43;3.10;;;;;7.00;97375.00;;;;5071984;28;20048;-62
2024/01/06 02:38:13;;;;;;;4.43;2.65;;;;;6.90;97373.00;;;;5072430;28;20106;-61
2024/01/06 02:40:39;;;;;;;5.32;2.65;;;;;6.90;97377.00;;;;5072330;28;20072;-62
2024/01/06 02:43:06;;;;;;;4.70;2.70;;;;;6.90;97375.00;;;;5072321;28;20048;-65
2024/01/06 02:45:32;;;;;;;6.10;3.00;;;;;7.00;97384.00;;;;5071520;28;20481;-63
2024/01/06 02:47:59;;;;;;;5.78;2.72;;;;;7.00;97378.00;;;;5072212;28;20071;-61
2024/01/06 02:50:26;;;;;;;4.57;2.60;;;;;7.00;97384.00;;;;5072047;28;20549;-62
2024/01/06 02:52:52;;;;;;;5.53;2.70;;;;;6.90;97385.00;;;;5072087;28;20048;-65
2024/01/06 02:55:19;;;;;;;6.97;2.97;;;;;7.00;97380.00;;;;5070243;28;20482;-62
2024/01/06 02:57:45;;;;;;;4.75;2.53;;;;;7.00;97382.00;;;;5070973;28;20058;-62
2024/01/06 03:00:15;;;;;;;8.10;2.55;;;;;7.00;97383.00;;;;5071969;28;20040;-62
2024/01/06 03:02:42;;;;;;;7.10;3.10;;;;;7.00;97391.00;;;;5072242;28;20028;-63
2024/01/06 03:05:10;;;;;;;5.00;2.88;;;;;7.00;97384.00;;;;5071348;28;20072;-61
2024/01/06 03:07:36;;;;;;;6.65;2.60;;;;;7.10;97393.00;;;;5071932;28;20041;-64
2024/01/06 03:10:03;;;;;;;6.35;2.80;;;;;7.10;97398.00;;;;5072005;28;20045;-63
2024/01/06 03:12:30;;;;;;;6.43;2.78;;;;;7.10;97395.00;;;;5072040;28;20036;-63
2024/01/06 03:14:56;;;;;;;4.75;2.90;;;;;7.10;97400.00;;;;5071179;28;20482;-62
2024/01/06 03:17:23;;;;;;;6.63;3.13;;;;;7.20;97398.00;;;;5071731;28;20514;-65
2024/01/06 03:19:49;;;;;;;4.97;2.28;;;;;7.20;97401.00;;;;5070878;28;20082;-63
2024/01/06 03:22:16;;;;;;;5.90;2.47;;;;;7.20;97413.00;;;;5070864;28;20443;-62
2024/01/06 03:24:43;;;;;;;5.70;3.00;;;;;7.10;97411.00;;;;5071439;28;20040;-66
2024/01/06 03:27:09;;;;;;;4.25;2.55;;;;;7.10;97410.00;;;;5071849;28;20048;-63
2024/01/06 03:29:36;;;;;;;5.50;2.65;;;;;7.00;97410.00;;;;5071375;28;20064;-62
2024/01/06 03:32:03;;;;;;;6.68;3.25;;;;;7.00;97413.00;;;;5071833;28;20467;-63
2024/01/06 03:34:29;;;;;;;6.00;2.30;;;;;7.00;97403.00;;;;5071108;28;20051;-63
2024/01/06 03:36:56;;;;;;;4.43;2.55;;;;;7.10;97399.00;;;;5071882;28;20063;-63
2024/01/06 03:39:22;;;;;;;5.60;2.80;;;;;7.10;97407.00;;;;5071618;28;20044;-63
2024/01/06 03:41:49;;;;;;;7.20;3.30;;;;;7.10;97409.00;;;;5070477;28;20136;-63
2024/01/06 03:44:15;;;;;;;3.97;2.80;;;;;7.10;97404.00;;;;5071089;28;20480;-64
2024/01/06 03:46:42;;;;;;;6.40;4.03;;;;;7.00;97405.00;;;;5075321;28;20051;-63
2024/01/06 03:49:08;;;;;;;7.13;3.15;;;;;7.10;97411.00;;;;5074200;28;20136;-61
2024/01/06 03:51:35;;;;;;;5.93;3.15;;;;;7.10;97423.00;;;;5075633;28;20072;-62
2024/01/06 03:54:02;;;;;;;7.72;3.50;;;;;7.20;97425.00;;;;5073406;28;20098;-63
2024/01/06 03:56:29;;;;;;;8.32;3.65;;;;;7.20;97431.00;;;;5075503;28;20045;-64
2024/01/06 03:58:55;;;;;;;7.38;3.45;;;;;7.20;97429.00;;;;5075227;28;20055;-61
2024/01/06 04:01:22;;;;;;;6.85;3.72;;;;;7.30;97422.00;;;;5074561;28;20119;-62
2024/01/06 04:03:48;;;;;;;6.22;3.10;;;;;7.30;97438.00;;;;5074685;28;20558;-62
2024/01/06 04:06:15;;;;;;;7.47;3.03;;;;;7.30;97433.00;;;;5075337;28;20037;-65
2024/01/06 04:08:42;;;;;;;6.28;3.25;;;;;7.30;97430.00;;;;5075283;28;20074;-65
2024/01/06 04:11:08;;;;;;;7.43;3.10;;;;;7.30;97430.00;;;;5075085;28;20048;-63
2024/01/06 04:13:35;;;;;;;7.30;3.53;;;;;7.30;97427.00;;;;5074321;28;20078;-64
2024/01/06 04:16:02;;;;;;;5.72;3.05;;;;;7.20;97421.00;;;;5073992;28;20045;-65
2024/01/06 04:18:29;;;;;;;8.52;3.28;;;;;7.20;97415.00;;;;5074852;28;20047;-65
2024/01/06 04:20:55;;;;;;;5.57;3.08;;;;;7.10;97415.00;;;;5075037;28;20067;-65
2024/01/06 04:23:23;;;;;;;9.40;3.03;;;;;7.10;97417.00;;;;5074568;28;20040;-62
2024/01/06 04:25:51;;;;;;;8.23;3.38;;;;;7.10;97417.00;;;;5074741;28;20041;-65
2024/01/06 04:28:18;;;;;;;7.28;3.55;;;;;7.10;97420.00;;;;5074725;28;20040;-65
2024/01/06 04:30:44;;;;;;;6.93;3.53;;;;;7.10;97422.00;;;;5074823;28;20067;-64
2024/01/06 04:33:11;;;;;;;6.68;4.00;;;;;7.10;97428.00;;;;5074606;28;20124;-65
2024/01/06 04:35:38;;;;;;;8.20;4.03;;;;;7.10;97418.00;;;;5072966;28;20044;-62
2024/01/06 04:38:05;;;;;;;6.93;4.00;;;;;7.10;97423.00;;;;5074578;28;20041;-65
2024/01/06 04:40:31;;;;;;;11.65;4.55;;;;;7.10;97421.00;;;;5074534;28;20135;-64
2024/01/06 04:42:58;;;;;;;6.07;4.38;;;;;7.10;97427.00;;;;5073205;28;20489;-65
2024/01/06 04:45:24;;;;;;;6.25;3.83;;;;;7.10;97422.00;;;;5073930;28;20052;-64
2024/01/06 04:47:51;;;;;;;9.38;4.35;;;;;7.10;97428.00;;;;5074427;28;20502;-65
2024/01/06 04:50:18;;;;;;;7.22;3.80;;;;;7.20;97431.00;;;;5074484;28;20098;-64
2024/01/06 04:52:44;;;;;;;12.90;4.50;;;;;7.20;97426.00;;;;5074419;28;20041;-64
2024/01/06 04:55:11;;;;;;;5.07;3.70;;;;;7.20;97430.00;;;;5073551;28;20041;-64
2024/01/06 04:57:37;;;;;;;8.02;3.97;;;;;7.30;97433.00;;;;5074142;28;20079;-64
2024/01/06 05:00:05;;;;;;;6.72;4.50;;;;;7.30;97425.00;;;;5074410;28;20477;-64
2024/01/06 05:02:31;;;;;;;9.02;5.35;;;;;7.30;97434.00;;;;5074291;28;20037;-64
2024/01/06 05:04:58;;;;;;;9.90;5.07;;;;;7.40;97436.00;;;;5073697;28;20037;-64
2024/01/06 05:07:24;;;;;;;9.98;5.60;;;;;7.40;97436.00;;;;5073957;28;20044;-64
2024/01/06 05:09:51;;;;;;;6.10;4.57;;;;;7.30;97432.00;;;;5072739;28;20136;-65
2024/01/06 05:12:18;;;;;;;6.88;4.40;;;;;7.40;97442.00;;;;5074012;28;20075;-64
2024/01/06 05:14:44;;;;;;;9.15;4.10;;;;;7.30;97437.00;;;;5073521;28;20383;-65
2024/01/06 05:17:11;;;;;;;7.28;4.50;;;;;7.20;97433.00;;;;5073896;28;20045;-64
2024/01/06 05:19:37;;;;;;;8.75;5.18;;;;;7.30;97441.00;;;;5073900;28;20071;-65
2024/01/06 05:22:04;;;;;;;7.60;4.68;;;;;7.30;97446.00;;;;5073978;28;20048;-64
2024/01/06 05:24:31;;;;;;;8.57;5.10;;;;;7.20;97445.00;;;;5073150;28;20046;-65
2024/01/06 05:26:58;;;;;;;9.80;4.80;;;;;7.20;97448.00;;;;5073726;28;20064;-65
2024/01/06 05:29:25;;;;;;;9.43;4.90;;;;;7.20;97448.00;;;;5073608;28;20041;-64
2024/01/06 05:31:52;;;;;;;5.78;4.45;;;;;7.30;97450.00;;;;5074038;28;20040;-65
2024/01/06 05:34:19;;;;;;;9.93;5.50;;;;;7.20;97453.00;;;;5072816;28;20429;-65
2024/01/06 05:36:46;;;;;;;6.78;4.78;;;;;7.20;97445.00;;;;5073650;28;20526;-65
2024/01/06 05:39:13;;;;;;;9.38;5.60;;;;;7.20;97457.00;;;;5073448;28;20052;-65
2024/01/06 05:41:40;;;;;;;8.98;4.90;;;;;7.20;97442.00;;;;5073400;28;20505;-65
2024/01/06 05:44:07;;;;;;;7.70;5.03;;;;;7.20;97451.00;;;;5071629;28;20060;-64
2024/01/06 05:46:34;;;;;;;7.75;4.95;;;;;7.20;97451.00;;;;5073241;28;20447;-65
2024/01/06 05:49:01;;;;;;;10.93;5.00;;;;;7.20;97453.00;;;;5073356;28;20058;-64
2024/01/06 05:51:28;;;;;;;7.68;5.40;;;;;7.20;97458.00;;;;5073230;28;20559;-65
2024/01/06 05:53:54;;;;;;;6.95;4.70;;;;;7.30;97464.00;;;;5072613;28;20581;-65
2024/01/06 05:56:25;;;;;;;8.95;4.93;;;;;7.30;97458.00;;;;5072976;28;20643;-65
2024/01/06 05:58:53;;;;;;;8.40;5.60;;;;;7.30;97464.00;;;;5071895;28;20484;-65
2024/01/06 06:01:20;;;;;;;9.00;5.55;;;;;7.30;97466.00;;;;5073087;28;20123;-64
2024/01/06 06:03:50;;;;;;;9.75;5.20;;;;;7.40;97467.00;;;;5072355;28;20418;-65
2024/01/06 06:06:17;;;;;;;10.18;6.00;;;;;7.40;97467.00;;;;5071444;28;20119;-65
2024/01/06 06:08:44;;;;;;;8.75;5.75;;;;;7.40;97472.00;;;;5072278;28;20555;-64
2024/01/06 06:11:10;;;;;;;6.97;4.70;;;;;7.50;97482.00;;;;5072819;28;20515;-65
2024/01/06 06:13:39;;;;;;;5.40;4.60;;;;;7.50;97473.00;;;;5070982;28;20048;-65
2024/01/06 06:16:05;;;;;;;7.68;5.55;;;;;7.50;97480.00;;;;5071329;28;20048;-65
2024/01/06 06:18:32;;;;;;;7.32;5.25;;;;;7.50;97472.00;;;;5072614;28;20546;-65
2024/01/06 06:20:59;;;;;;;8.82;4.90;;;;;7.50;97474.00;;;;5072703;28;20123;-65
2024/01/06 06:23:27;;;;;;;7.55;5.32;;;;;7.60;97483.00;;;;5072070;28;20045;-65
2024/01/06 06:25:54;;;;;;;7.78;4.80;;;;;7.60;97487.00;;;;5072510;28;20140;-65
2024/01/06 06:28:21;;;;;;;7.15;4.63;;;;;7.50;97497.00;;;;5072553;28;20119;-65
2024/01/06 06:30:47;;;;;;;7.88;4.97;;;;;7.60;97500.00;;;;5072516;28;20128;-65
2024/01/06 06:33:14;;;;;;;9.57;4.97;;;;;7.50;97501.00;;;;5072518;28;20222;-65
2024/01/06 06:35:41;;;;;;;7.25;4.82;;;;;7.60;97509.00;;;;5071689;28;20040;-67
2024/01/06 06:38:07;;;;;;;9.52;5.00;;;;;7.60;97510.00;;;;5072355;28;20048;-64
2024/01/06 06:40:34;;;;;;;8.52;5.13;;;;;7.60;97512.00;;;;5072241;28;20044;-65
2024/01/06 06:43:00;;;;;;;7.68;5.05;;;;;7.60;97515.00;;;;5072210;28;20047;-65
2024/01/06 06:45:27;;;;;;;6.95;4.70;;;;;7.60;97504.00;;;;5071596;28;20101;-66
2024/01/06 06:47:54;;;;;;;7.57;4.60;;;;;7.60;97520.00;;;;5072274;28;20060;-66
2024/01/06 06:50:20;;;;;;;7.78;5.53;;;;;7.60;97528.00;;;;5072561;28;20496;-66
2024/01/06 06:52:47;;;;;;;13.13;5.55;;;;;7.60;97533.00;;;;5072263;28;20048;-66
2024/01/06 06:55:14;;;;;;;9.27;5.05;;;;;7.50;97533.00;;;;5071152;28;20072;-65
2024/01/06 06:57:40;;;;;;;7.65;4.82;;;;;7.50;97536.00;;;;5073024;28;20409;-65
2024/01/06 07:00:07;;;;;;;8.52;5.07;;;;;7.50;97542.00;;;;5072153;28;20180;-66
2024/01/06 07:02:34;;;;;;;7.50;4.95;;;;;7.50;97548.00;;;;5072265;28;20127;-66
2024/01/06 07:05:00;;;;;;;9.15;5.68;;;;;7.40;97545.00;;;;5070133;28;20044;-63
2024/01/06 07:07:27;;;;;;;13.77;5.47;;;;;7.40;97544.00;;;;5072337;28;20055;-65
2024/01/06 07:09:54;;;;;;;10.07;5.70;;;;;7.40;97550.00;;;;5072294;28;20051;-63
2024/01/06 07:12:20;;;;;;;10.73;6.22;;;;;7.40;97553.00;;;;5071977;28;20040;-62
2024/01/06 07:14:47;;;;;;;10.27;5.75;;;;;7.40;97555.00;;;;5071280;28;20056;-62
2024/01/06 07:17:13;;;;;;;14.65;6.25;;;;;7.40;97554.00;;;;5072172;28;20051;-64
2024/01/06 07:19:40;;;;;;;9.75;6.25;;;;;7.40;97557.00;;;;5072292;28;20045;-63
2024/01/06 07:22:07;;;;;;;11.10;6.57;;;;;7.40;97557.00;;;;5075103;28;20169;-63
2024/01/06 07:24:33;;;;;;;9.70;6.60;;;;;7.40;97556.00;;;;5075438;28;20386;-65
2024/01/06 07:27:00;;;;;;;8.73;6.60;;;;;7.40;97563.00;;;;5076406;28;20442;-63
2024/01/06 07:29:27;;;;;;;10.05;6.43;;;;;7.30;97572.00;;;;5076171;28;20128;-63
2024/01/06 07:31:53;;;;;;;12.32;7.40;;;;;7.40;97567.00;;;;5076045;28;20040;-62
2024/01/06 07:34:20;;;;;;;14.18;6.80;;;;;7.40;97566.00;;;;5075315;28;20052;-64
2024/01/06 07:36:46;;;;;;;12.98;7.15;;;;;7.40;97571.00;;;;5075925;28;20040;-63
2024/01/06 07:39:13;;;;;;;12.20;6.72;;;;;7.40;97575.00;;;;5075872;28;20052;-63
2024/01/06 07:41:40;;;;;;;11.18;7.25;;;;;7.40;97584.00;;;;5075908;28;20099;-62
2024/01/06 07:44:06;;;;;;;13.82;7.40;;;;;7.30;97589.00;;;;5075155;28;20051;-63
2024/01/06 07:46:35;;;;;;;13.40;7.82;;;;;7.30;97598.00;;;;5075802;28;20036;-63
2024/01/06 07:49:01;;;;;;;12.40;7.57;;;;;7.30;97596.00;;;;5075533;28;20044;-63
2024/01/06 07:51:28;;;;;;;10.93;6.93;;;;;7.30;97602.00;;;;5075662;28;20036;-64
2024/01/06 07:53:55;;;;;;;14.88;7.78;;;;;7.30;97605.00;;;;5075031;28;20106;-63
2024/01/06 07:56:21;;;;;;;12.02;8.07;;;;;7.40;97613.00;;;;5075525;28;20520;-63
2024/01/06 07:58:48;;;;;;;11.65;7.50;;;;;7.40;97613.00;;;;5075470;28;20048;-63
2024/01/06 08:01:14;;;;;;;14.27;10.00;;;;;7.40;97608.00;;;;5074402;28;20098;-63
2024/01/06 08:03:41;;;;;;;13.80;8.60;;;;;7.40;97614.00;;;;5073510;28;20037;-63
2024/01/06 08:06:08;;;;;;;15.85;10.57;;;;;7.50;97621.00;;;;5075296;28;20036;-62
2024/01/06 08:08:35;;;;;;;11.00;7.28;;;;;7.50;97618.00;;;;5075128;28;20041;-65
2024/01/06 08:11:02;;;;;;;13.85;7.90;;;;;7.60;97624.00;;;;5074047;28;20409;-63
2024/01/06 08:13:28;;;;;;;12.27;7.32;;;;;7.60;97624.00;;;;5073488;28;20047;-64
2024/01/06 08:15:55;;;;;;;11.02;6.57;;;;;7.60;97626.00;;;;5075217;28;20483;-64
2024/01/06 08:18:22;;;;;;;12.75;7.38;;;;;7.60;97617.00;;;;5074923;28;20040;-62
2024/01/06 08:20:48;;;;;;;11.07;7.53;;;;;7.70;97626.00;;;;5075000;28;20044;-62
2024/01/06 08:23:16;;;;;;;13.02;7.85;;;;;7.70;97625.00;;;;5073717;28;20040;-62
2024/01/06 08:25:43;;;;;;;15.40;7.95;;;;;7.70;97629.00;;;;5074172;28;20140;-63
2024/01/06 08:28:09;;;;;;;14.40;8.63;;;;;7.70;97635.00;;;;5074844;28;20503;-65
2024/01/06 08:30:36;;;;;;;10.57;8.10;;;;;7.80;97642.00;;;;5073070;28;20067;-63
2024/01/06 08:33:03;;;;;;;13.07;7.25;;;;;7.80;97639.00;;;;5074755;28;20059;-63
2024/01/06 08:35:31;;;;;;;15.32;7.90;;;;;7.80;97642.00;;;;5074067;28;20119;-62
2024/01/06 08:37:57;;;;;;;12.48;7.68;;;;;7.80;97645.00;;;;5074711;28;20049;-62
2024/01/06 08:40:24;;;;;;;14.02;8.02;;;;;7.80;97643.00;;;;5074506;28;20044;-62
2024/01/06 08:42:50;;;;;;;13.40;8.30;;;;;7.80;97645.00;;;;5074596;28;20051;-63
2024/01/06 08:45:17;;;;;;;11.65;7.78;;;;;7.80;97644.00;;;;5073974;28;20494;-62
2024/01/06 08:47:49;;;;;;;11.98;7.90;;;;;7.80;97650.00;;;;5074512;28;20048;-62
2024/01/06 08:50:16;;;;;;;10.52;7.93;;;;;7.90;97651.00;;;;5074424;28;20064;-63
2024/01/06 08:52:43;;;;;;;11.65;8.23;;;;;7.90;97648.00;;;;5074336;28;20055;-62
2024/01/06 08:55:09;;;;;;;10.80;7.20;;;;;7.90;97642.00;;;;5072316;28;20048;-63
2024/01/06 08:57:36;;;;;;;11.82;7.80;;;;;7.90;97653.00;;;;5074275;28;20111;-62
2024/01/06 09:00:04;;;;;;;14.55;8.63;;;;;7.90;97656.00;;;;5074286;28;20055;-62
2024/01/06 09:02:31;;;;;;;13.35;8.48;;;;;7.90;97651.00;;;;5074157;28;20045;-62
2024/01/06 09:04:57;;;;;;;13.13;8.52;;;;;7.90;97658.00;;;;5073778;28;20043;-62
2024/01/06 09:07:24;;;;;;;13.98;8.90;;;;;7.90;97665.00;;;;5070832;28;20120;-62
2024/01/06 09:09:51;;;;;;;14.82;8.40;;;;;7.90;97667.00;;;;5074390;28;20072;-64
2024/01/06 09:12:18;;;;;;;15.55;8.57;;;;;7.90;97669.00;;;;5074135;28;20048;-64
2024/01/06 09:14:44;;;;;;;17.92;10.13;;;;;7.90;97673.00;;;;5072328;28;20111;-63
2024/01/06 09:17:11;;;;;;;16.60;8.57;;;;;7.80;97671.00;;;;5075071;28;20075;-63
2024/01/06 09:19:37;;;;;;;13.68;8.80;;;;;7.80;97673.00;;;;5074213;28;20047;-63
2024/01/06 09:22:04;;;;;;;11.32;8.13;;;;;7.80;97678.00;;;;5074442;28;20048;-62
2024/01/06 09:24:31;;;;;;;14.30;8.52;;;;;7.80;97679.00;;;;5072436;28;20047;-63
2024/01/06 09:26:58;;;;;;;16.95;9.07;;;;;7.80;97680.00;;;;5074527;28;20055;-62
2024/01/06 09:29:25;;;;;;;14.00;9.20;;;;;7.80;97678.00;;;;5072665;28;20127;-61
2024/01/06 09:31:52;;;;;;;13.75;9.05;;;;;7.90;97681.00;;;;5073916;28;20079;-63
2024/01/06 09:34:18;;;;;;;18.08;9.77;;;;;7.90;97684.00;;;;5073308;28;20044;-62
2024/01/06 09:36:45;;;;;;;13.80;8.80;;;;;8.00;97686.00;;;;5073837;28;20060;-62
2024/01/06 09:39:12;;;;;;;13.13;9.23;;;;;7.90;97686.00;;;;5073968;28;20098;-61
2024/01/06 09:41:39;;;;;;;18.13;9.73;;;;;7.90;97690.00;;;;5074708;28;20075;-61
2024/01/06 09:44:06;;;;;;;16.17;8.75;;;;;8.00;97699.00;;;;5073122;28;20498;-62
2024/01/06 09:46:33;;;;;;;16.35;9.57;;;;;8.00;97699.00;;;;5074379;28;20485;-62
2024/01/06 09:49:01;;;;;;;15.75;9.77;;;;;8.00;97699.00;;;;5074214;28;20040;-63
2024/01/06 09:51:28;;;;;;;13.52;8.75;;;;;8.00;97701.00;;;;5074222;28;20052;-63
2024/01/06 09:54:00;;;;;;;17.88;9.75;;;;;8.00;97698.00;;;;5074046;28;20094;-62
2024/01/06 09:56:28;;;;;;;15.48;10.02;;;;;8.10;97705.00;;;;5074365;28;20569;-63
2024/01/06 09:58:56;;;;;;;18.63;9.85;;;;;8.20;97705.00;;;;5074199;28;20041;-63
2024/01/06 10:01:23;;;;;;;15.55;9.35;;;;;8.20;97707.00;;;;5074743;28;20045;-65
2024/01/06 10:03:49;;;;;;;19.10;9.57;;;;;8.30;97710.00;;;;5073129;28;20448;-65
2024/01/06 10:06:17;;;;;;;11.90;8.60;;;;;8.30;97707.00;;;;5073806;28;20044;-64
2024/01/06 10:08:48;;;;;;;16.73;8.82;;;;;8.30;97709.00;;;;5074532;28;20079;-65
2024/01/06 10:11:15;;;;;;;15.15;8.82;;;;;8.40;97706.00;;;;5073372;28;20059;-65
2024/01/06 10:13:41;;;;;;;15.75;9.35;;;;;8.40;97714.00;;;;5072335;28;20915;-65
2024/01/06 10:16:09;;;;;;;13.70;8.20;;;;;8.50;97715.00;;;;5072724;28;20071;-65
2024/01/06 10:18:36;;;;;;;11.23;8.18;;;;;8.50;97704.00;;;;5072676;28;20044;-65
2024/01/06 10:21:05;;;;;;;14.13;8.68;;;;;8.50;97710.00;;;;5072608;28;20044;-65
2024/01/06 10:23:33;;;;;;;11.23;7.88;;;;;8.40;97706.00;;;;5072125;28;20573;-65
2024/01/06 10:26:00;;;;;;;12.77;7.95;;;;;8.40;97708.00;;;;5071348;28;20064;-65
2024/01/06 10:28:31;;;;;;;14.85;8.60;;;;;8.40;97715.00;;;;5065071;28;20044;-65
2024/01/06 10:30:58;;;;;;;12.65;8.05;;;;;8.40;97719.00;;;;5072724;28;20135;-65
2024/01/06 10:33:26;;;;;;;12.63;8.10;;;;;8.40;97711.00;;;;5071959;28;20493;-65
2024/01/06 10:35:56;;;;;;;11.52;7.90;;;;;8.40;97710.00;;;;5072214;28;20045;-65
2024/01/06 10:38:23;;;;;;;11.52;7.97;;;;;8.40;97709.00;;;;5072417;28;20036;-65
2024/01/06 10:41:01;;;;;;;14.77;8.90;;;;;8.50;97708.00;;;;5072235;28;20532;-64
2024/01/06 10:43:34;;;;;;;11.93;7.88;;;;;8.60;97709.00;;;;5071703;28;20044;-64
2024/01/06 10:46:04;;;;;;;10.73;7.25;;;;;8.70;97706.00;;;;5072454;28;20486;-65
2024/01/06 10:48:35;;;;;;;11.05;7.85;;;;;8.70;97707.00;;;;5072163;28;20500;-64
2024/01/06 10:51:02;;;;;;;12.75;7.50;;;;;8.80;97710.00;;;;5070968;28;20055;-64
2024/01/06 10:53:30;;;;;;;11.80;7.68;;;;;8.80;97710.00;;;;5071543;28;20421;-65
2024/01/06 10:55:58;;;;;;;12.05;7.53;;;;;8.80;97706.00;;;;5071994;28;20051;-64
2024/01/06 10:58:25;;;;;;;11.98;7.90;;;;;8.80;97701.00;;;;5070871;28;20592;-64
2024/01/06 11:00:52;;;;;;;10.85;7.85;;;;;8.90;97706.00;;;;5072461;28;20102;-65
2024/01/06 11:03:20;;;;;;;13.68;7.00;;;;;9.00;97712.00;;;;5071015;28;20094;-63
2024/01/06 11:05:48;;;;;;;10.27;6.57;;;;;9.00;97706.00;;;;5071512;28;20068;-65
2024/01/06 11:08:17;;;;;;;8.50;6.78;;;;;9.10;97712.00;;;;5072250;28;20572;-65
2024/01/06 11:10:44;;;;;;;12.05;5.40;;;;;9.00;97707.00;;;;5072117;28;20094;-65
2024/01/06 11:13:13;;;;;;;8.32;5.68;;;;;8.90;97702.00;;;;5072239;28;20064;-62
2024/01/06 11:15:45;;;;;;;8.60;6.15;;;;;8.90;97699.00;;;;5071379;28;20052;-61
2024/01/06 11:18:34;;;;;;;9.20;5.82;;;;;9.00;97704.00;;;;5071824;28;20127;-61
2024/01/06 11:21:13;;;;;;;9.93;6.20;;;;;9.00;97689.00;;;;5071882;28;20037;-61
2024/01/06 11:23:42;;;;;;;6.95;5.63;;;;;9.00;97694.00;;;;5071243;28;20135;-62
2024/01/06 11:26:09;;;;;;;6.78;5.22;;;;;8.90;97689.00;;;;5071837;28;20041;-62
2024/01/06 11:28:57;;;;;;;7.90;5.43;;;;;8.90;97690.00;;;;5071848;28;20045;-63
2024/01/06 11:31:30;;;;;;;7.03;5.90;;;;;8.90;97693.00;;;;5071944;28;20128;-63
2024/01/06 11:34:14;;;;;;;7.13;5.10;;;;;8.90;97697.00;;;;5070139;28;20074;-63
2024/01/06 11:36:43;;;;;;;7.50;5.45;;;;;8.90;97696.00;;;;5071892;28;20397;-64
2024/01/06 11:39:40;;;;;;;8.40;5.45;;;;;8.80;97694.00;;;;5071820;28;20041;-63
2024/01/06 11:42:11;;;;;;;6.97;5.30;;;;;8.80;97689.00;;;;5071752;28;20119;-62
2024/01/06 11:44:39;;;;;;;11.57;5.00;;;;;8.70;97684.00;;;;5071345;28;20064;-62
2024/01/06 11:47:06;;;;;;;8.10;4.55;;;;;8.60;97687.00;;;;5071752;28;20106;-64
2024/01/06 11:49:32;;;;;;;6.63;4.70;;;;;8.60;97675.00;;;;5071303;28;20071;-65
2024/01/06 11:52:00;;;;;;;5.78;4.95;;;;;8.60;97683.00;;;;5070334;28;20052;-64
2024/01/06 11:54:27;;;;;;;7.07;5.20;;;;;8.60;97687.00;;;;5071126;28;20374;-65
2024/01/06 11:56:55;;;;;;;6.10;5.05;;;;;8.70;97681.00;;;;5071528;28;20434;-65
2024/01/06 11:59:22;;;;;;;8.80;4.90;;;;;8.80;97680.00;;;;5071505;28;20044;-65
2024/01/06 12:01:48;;;;;;;6.38;5.03;;;;;8.90;97682.00;;;;5071574;28;20072;-65
2024/01/06 12:04:16;;;;;;;7.40;4.90;;;;;9.00;97681.00;;;;5070802;28;20550;-64
2024/01/06 12:06:43;;;;;;;5.70;4.63;;;;;9.00;97690.00;;;;5073526;28;20044;-64
2024/01/06 12:09:15;;;;;;;7.70;4.60;;;;;8.90;97681.00;;;;5075118;28;20044;-65
2024/01/06 12:11:44;;;;;;;4.82;4.03;;;;;8.80;97686.00;;;;5075033;28;20045;-64
2024/01/06 12:14:11;;;;;;;8.65;4.10;;;;;8.80;97687.00;;;;5074636;28;20520;-65
2024/01/06 12:16:38;;;;;;;4.18;3.63;;;;;8.70;97675.00;;;;5074920;28;20045;-65
2024/01/06 12:19:04;;;;;;;6.30;3.70;;;;;8.60;97680.00;;;;5075717;28;20119;-65
2024/01/06 12:21:33;;;;;;;3.95;3.00;;;;;8.60;97670.00;;;;5076046;28;20409;-65
2024/01/06 12:24:20;;;;;;;7.68;3.65;;;;;8.60;97665.00;;;;5074702;28;20068;-65